createdAt,value
2022-10-16T00:00:51.109Z,13.717651
2022-10-16T00:02:00.790Z,13.69751
2022-10-16T00:03:08.429Z,13.69751
2022-10-16T00:04:18.109Z,13.69751
2022-10-16T00:05:26.781Z,13.69751
2022-10-16T00:06:34.457Z,13.677368
2022-10-16T00:07:44.214Z,13.69751
2022-10-16T00:08:52.836Z,13.677368
2022-10-16T00:10:01.485Z,13.677368
2022-10-16T00:11:11.166Z,13.667297
2022-10-16T00:12:19.942Z,13.667297
2022-10-16T00:13:29.586Z,13.627014
2022-10-16T00:14:38.250Z,13.616943
2022-10-16T00:15:45.955Z,13.596802
2022-10-16T00:16:55.697Z,13.586731
2022-10-16T00:18:04.377Z,13.526306
2022-10-16T00:19:14.052Z,13.536377
2022-10-16T00:20:23.799Z,13.465881
2022-10-16T00:21:31.449Z,13.415527
2022-10-16T00:22:41.130Z,13.385315
2022-10-16T00:23:50.869Z,13.365173
2022-10-16T00:24:59.506Z,13.365173
2022-10-16T00:26:08.184Z,13.375244
2022-10-16T00:27:17.862Z,13.375244
2022-10-16T00:28:25.541Z,13.334961
2022-10-16T00:29:35.183Z,13.314819
2022-10-16T00:30:43.848Z,13.284607
2022-10-16T00:31:52.550Z,13.274536
2022-10-16T00:33:02.209Z,13.274536
2022-10-16T00:34:11.869Z,13.284607
2022-10-16T00:35:21.546Z,13.304749
2022-10-16T00:36:31.221Z,13.304749
2022-10-16T00:37:38.867Z,13.334961
2022-10-16T00:38:48.578Z,13.334961
2022-10-16T00:39:57.200Z,13.314819
2022-10-16T00:41:05.853Z,13.304749
2022-10-16T00:42:15.540Z,13.304749
2022-10-16T00:43:23.168Z,13.284607
2022-10-16T00:44:32.820Z,13.304749
2022-10-16T00:45:42.474Z,13.284607
2022-10-16T00:46:50.166Z,13.274536
2022-10-16T00:47:59.887Z,13.254395
2022-10-16T00:49:09.496Z,13.274536
2022-10-16T00:50:19.164Z,13.254395
2022-10-16T00:51:28.836Z,13.274536
2022-10-16T00:52:38.608Z,13.274536
2022-10-16T00:53:47.273Z,13.254395
2022-10-16T00:54:57.927Z,13.224182
2022-10-16T00:56:06.621Z,13.224182
2022-10-16T00:57:16.268Z,13.224182
2022-10-16T00:58:25.947Z,13.234253
2022-10-16T00:59:34.629Z,13.234253
2022-10-16T01:00:44.289Z,13.254395
2022-10-16T01:01:53.950Z,13.234253
2022-10-16T01:03:03.618Z,13.274536
2022-10-16T01:04:13.319Z,13.274536
2022-10-16T01:05:21.971Z,13.274536
2022-10-16T01:06:31.628Z,13.304749
2022-10-16T01:07:41.287Z,13.304749
2022-10-16T01:08:48.943Z,13.304749
2022-10-16T01:09:58.622Z,13.284607
2022-10-16T01:11:08.285Z,13.234253
2022-10-16T01:12:16.974Z,13.224182
2022-10-16T01:13:26.603Z,13.19397
2022-10-16T01:14:35.259Z,13.153687
2022-10-16T01:15:43.947Z,13.133545
2022-10-16T01:16:52.604Z,13.123474
2022-10-16T01:18:00.279Z,13.113403
2022-10-16T01:19:09.959Z,13.083191
2022-10-16T01:20:17.609Z,13.083191
2022-10-16T01:21:26.420Z,13.093262
2022-10-16T01:22:36.065Z,13.083191
2022-10-16T01:23:43.713Z,13.113403
2022-10-16T01:24:53.381Z,13.093262
2022-10-16T01:26:02.016Z,13.093262
2022-10-16T01:27:09.706Z,13.083191
2022-10-16T01:28:19.422Z,13.083191
2022-10-16T01:29:28.027Z,13.093262
2022-10-16T01:30:37.680Z,13.093262
2022-10-16T01:31:47.369Z,13.093262
2022-10-16T01:32:55.016Z,13.123474
2022-10-16T01:34:04.698Z,13.133545
2022-10-16T01:35:14.336Z,13.133545
2022-10-16T01:36:21.995Z,13.153687
2022-10-16T01:37:31.668Z,13.153687
2022-10-16T01:38:39.413Z,13.163757
2022-10-16T01:39:48.071Z,13.183899
2022-10-16T01:40:56.731Z,13.163757
2022-10-16T01:42:04.374Z,13.183899
2022-10-16T01:43:14.023Z,13.153687
2022-10-16T01:44:22.725Z,13.133545
2022-10-16T01:45:30.343Z,13.153687
2022-10-16T01:46:40.007Z,13.133545
2022-10-16T01:47:47.660Z,13.153687
2022-10-16T01:48:56.307Z,13.133545
2022-10-16T01:50:06.025Z,13.113403
2022-10-16T01:51:13.680Z,13.093262
2022-10-16T01:52:23.366Z,13.093262
2022-10-16T01:53:31.994Z,13.113403
2022-10-16T01:54:40.660Z,13.083191
2022-10-16T01:55:50.500Z,13.052979
2022-10-16T01:56:58.154Z,13.042908
2022-10-16T01:58:06.918Z,13.042908
2022-10-16T01:59:16.573Z,13.042908
2022-10-16T02:00:26.253Z,13.052979
2022-10-16T02:01:35.911Z,13.052979
2022-10-16T02:02:45.585Z,13.052979
2022-10-16T02:03:54.244Z,13.052979
2022-10-16T02:05:03.909Z,13.052979
2022-10-16T02:06:11.593Z,13.032837
2022-10-16T02:07:21.389Z,13.002625
2022-10-16T02:08:31.061Z,13.002625
2022-10-16T02:09:39.719Z,13.002625
2022-10-16T02:10:49.367Z,12.972412
2022-10-16T02:11:58.021Z,12.982483
2022-10-16T02:13:05.734Z,12.952271
2022-10-16T02:14:15.392Z,12.952271
2022-10-16T02:15:24.052Z,12.972412
2022-10-16T02:16:32.743Z,13.002625
2022-10-16T02:17:42.383Z,13.002625
2022-10-16T02:18:50.060Z,13.032837
2022-10-16T02:19:59.707Z,13.012695
2022-10-16T02:21:08.356Z,13.032837
2022-10-16T02:22:17.041Z,13.042908
2022-10-16T02:23:26.690Z,13.093262
2022-10-16T02:24:36.393Z,13.083191
2022-10-16T02:25:45.091Z,13.123474
2022-10-16T02:26:54.772Z,13.133545
2022-10-16T02:28:03.447Z,13.133545
2022-10-16T02:29:12.121Z,13.133545
2022-10-16T02:30:21.849Z,13.123474
2022-10-16T02:31:30.510Z,13.123474
2022-10-16T02:32:39.181Z,13.113403
2022-10-16T02:33:48.832Z,13.133545
2022-10-16T02:34:56.508Z,13.123474
2022-10-16T02:36:06.197Z,13.113403
2022-10-16T02:37:14.893Z,13.113403
2022-10-16T02:38:22.555Z,13.093262
2022-10-16T02:39:32.248Z,13.113403
2022-10-16T02:40:39.891Z,13.093262
2022-10-16T02:41:48.665Z,13.093262
2022-10-16T02:42:58.317Z,13.093262
2022-10-16T02:44:06.971Z,13.083191
2022-10-16T02:45:16.610Z,13.083191
2022-10-16T02:46:25.291Z,13.093262
2022-10-16T02:47:33.062Z,13.052979
2022-10-16T02:48:42.736Z,13.032837
2022-10-16T02:49:51.437Z,13.032837
2022-10-16T02:51:00.123Z,13.012695
2022-10-16T02:52:09.803Z,13.012695
2022-10-16T02:53:18.525Z,12.982483
2022-10-16T02:54:28.178Z,12.972412
2022-10-16T02:55:38.812Z,12.952271
2022-10-16T02:56:46.550Z,12.9422
2022-10-16T02:57:56.240Z,12.932129
2022-10-16T02:59:05.943Z,12.901917
2022-10-16T03:00:14.618Z,12.861633
2022-10-16T03:01:24.365Z,12.82135
2022-10-16T03:02:31.961Z,12.781067
2022-10-16T03:03:41.616Z,12.680359
2022-10-16T03:04:50.343Z,12.619934
2022-10-16T03:05:57.993Z,12.579651
2022-10-16T03:07:07.644Z,12.619934
2022-10-16T03:08:16.298Z,12.619934
2022-10-16T03:09:24.960Z,12.670288
2022-10-16T03:10:34.919Z,12.7005
2022-10-16T03:11:42.611Z,12.7005
2022-10-16T03:12:52.273Z,12.730713
2022-10-16T03:14:00.937Z,12.720642
2022-10-16T03:15:09.606Z,12.720642
2022-10-16T03:16:19.319Z,12.760925
2022-10-16T03:17:29.250Z,12.781067
2022-10-16T03:18:38.669Z,12.781067
2022-10-16T03:19:48.350Z,12.791138
2022-10-16T03:20:58.022Z,12.791138
2022-10-16T03:22:07.694Z,12.781067
2022-10-16T03:23:17.436Z,12.760925
2022-10-16T03:24:26.028Z,12.750854
2022-10-16T03:25:35.694Z,12.750854
2022-10-16T03:26:43.358Z,12.7005
2022-10-16T03:27:52.053Z,12.7005
2022-10-16T03:29:01.836Z,12.670288
2022-10-16T03:30:09.444Z,12.670288
2022-10-16T03:31:19.110Z,12.650146
2022-10-16T03:32:28.848Z,12.640076
2022-10-16T03:33:37.450Z,12.609863
2022-10-16T03:34:47.123Z,12.56958
2022-10-16T03:35:55.777Z,12.549438
2022-10-16T03:37:04.457Z,12.56958
2022-10-16T03:38:14.122Z,12.539368
2022-10-16T03:39:23.878Z,12.539368
2022-10-16T03:40:33.559Z,12.529297
2022-10-16T03:41:42.249Z,12.539368
2022-10-16T03:42:50.936Z,12.599792
2022-10-16T03:44:00.612Z,12.609863
2022-10-16T03:45:07.279Z,12.609863
2022-10-16T03:46:15.916Z,12.619934
2022-10-16T03:47:25.906Z,12.619934
2022-10-16T03:48:34.302Z,12.640076
2022-10-16T03:49:43.980Z,12.650146
2022-10-16T03:50:53.702Z,12.7005
2022-10-16T03:52:01.341Z,12.730713
2022-10-16T03:53:11.011Z,12.750854
2022-10-16T03:54:20.667Z,12.750854
2022-10-16T03:55:29.308Z,12.791138
2022-10-16T03:56:39.013Z,12.82135
2022-10-16T03:57:47.669Z,12.831421
2022-10-16T03:58:57.342Z,12.861633
2022-10-16T04:00:05.994Z,12.901917
2022-10-16T04:01:13.700Z,12.911987
2022-10-16T04:02:23.386Z,12.932129
2022-10-16T04:03:32.167Z,12.932129
2022-10-16T04:04:40.844Z,12.932129
2022-10-16T04:05:50.505Z,12.9422
2022-10-16T04:06:58.172Z,12.9422
2022-10-16T04:08:07.872Z,12.952271
2022-10-16T04:09:16.563Z,12.911987
2022-10-16T04:10:24.218Z,12.932129
2022-10-16T04:11:33.891Z,12.932129
2022-10-16T04:12:43.559Z,12.901917
2022-10-16T04:13:51.241Z,12.901917
2022-10-16T04:15:00.905Z,12.901917
2022-10-16T04:16:09.584Z,12.932129
2022-10-16T04:17:19.248Z,12.911987
2022-10-16T04:18:28.958Z,12.901917
2022-10-16T04:19:38.728Z,12.871704
2022-10-16T04:20:47.381Z,12.901917
2022-10-16T04:21:57.100Z,12.871704
2022-10-16T04:23:05.765Z,12.871704
2022-10-16T04:24:15.419Z,12.861633
2022-10-16T04:25:24.147Z,12.871704
2022-10-16T04:26:33.854Z,12.861633
2022-10-16T04:27:45.214Z,12.861633
2022-10-16T04:28:52.331Z,12.861633
2022-10-16T04:30:01.945Z,12.861633
2022-10-16T04:31:11.638Z,12.851562
2022-10-16T04:32:19.303Z,12.861633
2022-10-16T04:33:28.996Z,12.861633
2022-10-16T04:34:38.695Z,12.861633
2022-10-16T04:35:48.351Z,12.851562
2022-10-16T04:36:58.041Z,12.871704
2022-10-16T04:38:06.718Z,12.871704
2022-10-16T04:39:15.364Z,12.871704
2022-10-16T04:40:25.034Z,12.871704
2022-10-16T04:41:33.720Z,12.901917
2022-10-16T04:42:43.373Z,12.901917
2022-10-16T04:43:53.045Z,12.901917
2022-10-16T04:45:01.717Z,12.901917
2022-10-16T04:46:12.363Z,12.911987
2022-10-16T04:47:20.025Z,12.911987
2022-10-16T04:48:28.723Z,12.911987
2022-10-16T04:49:39.383Z,12.932129
2022-10-16T04:50:49.330Z,12.9422
2022-10-16T04:51:56.713Z,12.932129
2022-10-16T04:53:05.383Z,12.932129
2022-10-16T04:54:13.111Z,12.9422
2022-10-16T04:55:22.801Z,12.932129
2022-10-16T04:56:31.570Z,12.9422
2022-10-16T04:57:41.260Z,12.9422
2022-10-16T04:58:50.916Z,12.9422
2022-10-16T04:59:59.612Z,12.972412
2022-10-16T05:01:09.273Z,13.002625
2022-10-16T05:02:17.971Z,13.012695
2022-10-16T05:03:26.723Z,12.972412
2022-10-16T05:04:36.316Z,13.002625
2022-10-16T05:05:45.110Z,12.982483
2022-10-16T05:06:53.785Z,13.032837
2022-10-16T05:08:03.480Z,13.012695
2022-10-16T05:09:12.166Z,13.012695
2022-10-16T05:10:21.843Z,13.012695
2022-10-16T05:11:30.553Z,13.012695
2022-10-16T05:12:39.237Z,13.012695
2022-10-16T05:13:49.917Z,13.032837
2022-10-16T05:14:58.588Z,13.042908
2022-10-16T05:16:07.255Z,13.042908
2022-10-16T05:17:16.970Z,13.083191
2022-10-16T05:18:24.630Z,13.093262
2022-10-16T05:19:34.322Z,13.113403
2022-10-16T05:20:43.006Z,13.113403
2022-10-16T05:21:52.675Z,13.123474
2022-10-16T05:23:02.559Z,13.123474
2022-10-16T05:24:10.144Z,13.133545
2022-10-16T05:25:18.834Z,13.133545
2022-10-16T05:26:28.525Z,13.133545
2022-10-16T05:27:36.177Z,13.153687
2022-10-16T05:28:45.923Z,13.133545
2022-10-16T05:29:54.594Z,13.133545
2022-10-16T05:31:02.273Z,13.153687
2022-10-16T05:32:11.998Z,13.163757
2022-10-16T05:33:20.675Z,13.19397
2022-10-16T05:34:29.343Z,13.224182
2022-10-16T05:35:39.040Z,13.204041
2022-10-16T05:36:47.707Z,13.234253
2022-10-16T05:37:57.367Z,13.254395
2022-10-16T05:39:06.031Z,13.254395
2022-10-16T05:40:14.717Z,13.274536
2022-10-16T05:41:24.369Z,13.284607
2022-10-16T05:42:33.028Z,13.304749
2022-10-16T05:43:41.721Z,13.304749
2022-10-16T05:44:51.385Z,13.304749
2022-10-16T05:46:00.146Z,13.304749
2022-10-16T05:47:09.797Z,13.304749
2022-10-16T05:48:18.481Z,13.334961
2022-10-16T05:49:27.133Z,13.345032
2022-10-16T05:50:37.780Z,13.375244
2022-10-16T05:51:46.498Z,13.385315
2022-10-16T05:52:55.220Z,13.385315
2022-10-16T05:54:04.854Z,13.405457
2022-10-16T05:55:13.178Z,13.415527
2022-10-16T05:56:24.002Z,13.415527
2022-10-16T05:57:34.669Z,13.435669
2022-10-16T05:58:43.367Z,13.415527
2022-10-16T05:59:53.073Z,13.455811
2022-10-16T06:01:02.803Z,13.435669
2022-10-16T06:02:11.455Z,13.455811
2022-10-16T06:03:21.163Z,13.486023
2022-10-16T06:04:28.841Z,13.465881
2022-10-16T06:05:38.492Z,13.496094
2022-10-16T06:06:47.155Z,13.486023
2022-10-16T06:07:56.828Z,13.496094
2022-10-16T06:09:06.625Z,13.516235
2022-10-16T06:10:15.274Z,13.536377
2022-10-16T06:11:23.963Z,13.566589
2022-10-16T06:12:33.854Z,13.596802
2022-10-16T06:13:41.498Z,13.647156
2022-10-16T06:14:51.318Z,13.677368
2022-10-16T06:16:00.017Z,13.707581
2022-10-16T06:17:08.723Z,13.707581
2022-10-16T06:18:18.361Z,13.737793
2022-10-16T06:19:28.068Z,13.717651
2022-10-16T06:20:36.782Z,13.737793
2022-10-16T06:21:46.486Z,13.737793
2022-10-16T06:22:55.149Z,13.768005
2022-10-16T06:24:04.825Z,13.788147
2022-10-16T06:25:14.495Z,13.808289
2022-10-16T06:26:23.225Z,13.808289
2022-10-16T06:27:32.903Z,13.82843
2022-10-16T06:28:42.665Z,13.848572
2022-10-16T06:29:51.233Z,13.848572
2022-10-16T06:31:02.879Z,13.868713
2022-10-16T06:32:10.642Z,13.888855
2022-10-16T06:33:19.274Z,13.898926
2022-10-16T06:34:28.935Z,13.959351
2022-10-16T06:35:38.585Z,13.999634
2022-10-16T06:36:47.279Z,14.049988
2022-10-16T06:37:58.047Z,14.100342
2022-10-16T06:39:06.704Z,14.110413
2022-10-16T06:40:16.368Z,14.150696
2022-10-16T06:41:25.037Z,14.20105
2022-10-16T06:42:33.698Z,14.221191
2022-10-16T06:43:43.394Z,14.231262
2022-10-16T06:44:51.057Z,14.251404
2022-10-16T06:46:00.751Z,14.261475
2022-10-16T06:47:10.465Z,14.281616
2022-10-16T06:48:19.164Z,14.291687
2022-10-16T06:49:27.853Z,14.321899
2022-10-16T06:50:36.520Z,14.321899
2022-10-16T06:51:45.205Z,14.321899
2022-10-16T06:52:54.909Z,14.33197
2022-10-16T06:54:04.432Z,14.352112
2022-10-16T06:55:13.328Z,14.362183
2022-10-16T06:56:23.000Z,14.362183
2022-10-16T06:57:30.666Z,14.362183
2022-10-16T06:58:40.358Z,14.362183
2022-10-16T06:59:52.101Z,14.372253
2022-10-16T07:00:58.696Z,14.372253
2022-10-16T07:02:08.373Z,14.412537
2022-10-16T07:03:17.055Z,14.432678
2022-10-16T07:04:25.771Z,14.442749
2022-10-16T07:05:35.443Z,14.483032
2022-10-16T07:06:43.165Z,14.503174
2022-10-16T07:07:52.846Z,14.513245
2022-10-16T07:09:02.552Z,14.543457
2022-10-16T07:10:10.259Z,14.543457
2022-10-16T07:11:19.932Z,14.553528
2022-10-16T07:12:29.021Z,14.593811
2022-10-16T07:13:37.430Z,14.603882
2022-10-16T07:14:48.080Z,14.603882
2022-10-16T07:15:55.777Z,14.634094
2022-10-16T07:17:05.469Z,14.664307
2022-10-16T07:18:14.179Z,14.70459
2022-10-16T07:19:23.840Z,14.785156
2022-10-16T07:20:34.513Z,14.83551
2022-10-16T07:21:42.167Z,14.936218
2022-10-16T07:22:50.821Z,15.067139
2022-10-16T07:24:00.638Z,15.268555
2022-10-16T07:25:08.291Z,15.439758
2022-10-16T07:26:17.969Z,15.671387
2022-10-16T07:27:26.677Z,15.903015
2022-10-16T07:28:33.382Z,16.154785
2022-10-16T07:29:43.014Z,16.34613
2022-10-16T07:30:51.680Z,16.567688
2022-10-16T07:32:00.342Z,16.789246
2022-10-16T07:33:10.000Z,17.020874
2022-10-16T07:34:17.674Z,17.161865
2022-10-16T07:35:27.407Z,17.272644
2022-10-16T07:36:36.195Z,17.383423
2022-10-16T07:37:45.802Z,17.494202
2022-10-16T07:38:57.072Z,17.675476
2022-10-16T07:40:05.120Z,17.796326
2022-10-16T07:41:14.994Z,17.947388
2022-10-16T07:42:24.734Z,18.09845
2022-10-16T07:43:33.403Z,18.249512
2022-10-16T07:44:43.137Z,18.380432
2022-10-16T07:47:03.540Z,18.813477
2022-10-16T07:48:13.241Z,18.843689
2022-10-16T07:49:22.997Z,18.964539
2022-10-16T07:50:32.734Z,18.934326
2022-10-16T07:51:41.407Z,19.115601
2022-10-16T07:52:51.121Z,19.447937
2022-10-16T07:54:00.819Z,19.508362
2022-10-16T07:55:10.592Z,19.689636
2022-10-16T07:56:18.269Z,19.850769
2022-10-16T07:57:28.361Z,19.810486
2022-10-16T07:58:35.644Z,19.820557
2022-10-16T07:59:44.281Z,19.961548
2022-10-16T08:00:53.991Z,20.072327
2022-10-16T08:02:03.740Z,20.183105
2022-10-16T08:03:13.411Z,20.102539
2022-10-16T08:04:23.119Z,20.092468
2022-10-16T08:05:31.770Z,19.961548
2022-10-16T08:06:41.459Z,19.810486
2022-10-16T08:07:50.218Z,19.629211
2022-10-16T08:08:58.945Z,19.639282
2022-10-16T08:10:08.665Z,19.709778
2022-10-16T08:11:18.347Z,19.729919
2022-10-16T08:12:28.011Z,19.73999
2022-10-16T08:13:37.726Z,19.820557
2022-10-16T08:14:47.049Z,19.911194
2022-10-16T08:15:55.156Z,20.102539
2022-10-16T08:17:03.858Z,20.24353
2022-10-16T08:18:11.551Z,20.374451
2022-10-16T08:19:21.285Z,20.404663
2022-10-16T08:20:30.006Z,20.555725
2022-10-16T08:21:38.793Z,20.666504
2022-10-16T08:22:48.466Z,20.86792
2022-10-16T08:23:58.608Z,20.877991
2022-10-16T08:25:05.884Z,20.968628
2022-10-16T08:26:15.592Z,21.149902
2022-10-16T08:27:23.510Z,21.421814
2022-10-16T08:28:33.259Z,21.452026
2022-10-16T08:29:42.864Z,21.421814
2022-10-16T08:30:51.603Z,21.331177
2022-10-16T08:32:01.277Z,21.512451
2022-10-16T08:33:11.003Z,21.582947
2022-10-16T08:34:20.805Z,21.643372
2022-10-16T08:35:30.611Z,21.734009
2022-10-16T08:36:39.289Z,22.12677
2022-10-16T08:37:48.972Z,22.227478
2022-10-16T08:38:57.747Z,22.217407
2022-10-16T08:40:05.450Z,22.096558
2022-10-16T08:41:15.148Z,22.197266
2022-10-16T08:42:22.889Z,22.287903
2022-10-16T08:43:31.621Z,22.49939
2022-10-16T08:44:41.289Z,22.328186
2022-10-16T08:45:50.023Z,22.217407
2022-10-16T08:46:59.760Z,21.955566
2022-10-16T08:48:08.438Z,21.925354
2022-10-16T08:49:17.106Z,21.985779
2022-10-16T08:50:26.881Z,22.146912
2022-10-16T08:51:36.346Z,22.24762
2022-10-16T08:52:45.203Z,22.167053
2022-10-16T08:53:54.876Z,22.25769
2022-10-16T08:55:04.570Z,22.438965
2022-10-16T08:56:14.308Z,22.63031
2022-10-16T08:57:24.629Z,22.76123
2022-10-16T08:58:32.682Z,22.942505
2022-10-16T08:59:42.362Z,23.053284
2022-10-16T09:00:51.167Z,23.083496
2022-10-16T09:01:59.762Z,23.204346
2022-10-16T09:03:09.461Z,23.315125
2022-10-16T09:04:19.206Z,23.174133
2022-10-16T09:05:28.872Z,22.811584
2022-10-16T09:06:37.538Z,22.731018
2022-10-16T09:07:46.240Z,22.811584
2022-10-16T09:08:55.985Z,23.244629
2022-10-16T09:10:03.730Z,23.808594
2022-10-16T09:11:12.488Z,24.01001
2022-10-16T09:12:22.219Z,24.26178
2022-10-16T09:13:30.898Z,24.26178
2022-10-16T09:14:40.598Z,24.422913
2022-10-16T09:15:49.280Z,24.735107
2022-10-16T09:16:58.058Z,24.775391
2022-10-16T09:18:07.683Z,24.986877
2022-10-16T09:19:15.541Z,24.835815
2022-10-16T09:20:24.290Z,24.533691
2022-10-16T09:21:33.985Z,24.382629
2022-10-16T09:22:42.720Z,24.453125
2022-10-16T09:23:52.436Z,24.231567
2022-10-16T09:25:01.198Z,24.161072
2022-10-16T09:26:09.919Z,24.503479
2022-10-16T09:27:18.606Z,24.694824
2022-10-16T09:28:27.379Z,24.654541
2022-10-16T09:29:36.009Z,24.654541
2022-10-16T09:30:45.878Z,24.614258
2022-10-16T09:31:53.569Z,24.503479
2022-10-16T09:33:03.245Z,24.130859
2022-10-16T09:34:11.915Z,24.171143
2022-10-16T09:35:19.606Z,24.281921
2022-10-16T09:36:29.298Z,24.483337
2022-10-16T09:37:36.977Z,24.694824
2022-10-16T09:38:46.688Z,24.584045
2022-10-16T09:39:56.361Z,24.735107
2022-10-16T09:41:07.102Z,24.805603
2022-10-16T09:42:17.023Z,24.976807
2022-10-16T09:43:25.734Z,25.349426
2022-10-16T09:44:33.538Z,25.067444
2022-10-16T09:45:43.162Z,24.755249
2022-10-16T09:46:52.910Z,24.604187
2022-10-16T09:48:01.575Z,24.543762
2022-10-16T09:49:10.246Z,24.51355
2022-10-16T09:50:18.896Z,24.584045
2022-10-16T09:51:27.583Z,24.876099
2022-10-16T09:52:37.249Z,25.097656
2022-10-16T09:53:44.952Z,25.218506
2022-10-16T09:54:54.623Z,25.178223
2022-10-16T09:56:03.329Z,25.168152
2022-10-16T09:57:13.967Z,25.379639
2022-10-16T09:58:23.643Z,25.278931
2022-10-16T09:59:32.435Z,25.127869
2022-10-16T10:00:42.164Z,25.107727
2022-10-16T10:01:51.823Z,25.258789
2022-10-16T10:03:00.499Z,25.409851
2022-10-16T10:04:10.166Z,25.409851
2022-10-16T10:05:17.870Z,25.409851
2022-10-16T10:06:27.559Z,25.258789
2022-10-16T10:07:37.208Z,25.178223
2022-10-16T10:08:44.865Z,25.137939
2022-10-16T10:09:55.587Z,25.127869
2022-10-16T10:11:05.329Z,25.208435
2022-10-16T10:12:16.008Z,25.359497
2022-10-16T10:13:26.670Z,25.530701
2022-10-16T10:14:34.425Z,25.379639
2022-10-16T10:15:43.095Z,25.39978
2022-10-16T10:16:52.767Z,25.661621
2022-10-16T10:18:02.429Z,25.953674
2022-10-16T10:19:11.087Z,26.215515
2022-10-16T10:20:21.754Z,26.557922
2022-10-16T10:21:29.448Z,26.507568
2022-10-16T10:22:39.263Z,26.729126
2022-10-16T10:23:48.926Z,26.950684
2022-10-16T10:24:56.620Z,27.111816
2022-10-16T10:26:06.275Z,26.990967
2022-10-16T10:27:14.961Z,26.960754
2022-10-16T10:28:22.722Z,27.182312
2022-10-16T10:29:32.393Z,26.849976
2022-10-16T10:30:40.061Z,26.588135
2022-10-16T10:31:48.756Z,26.749268
2022-10-16T10:32:58.485Z,26.880188
2022-10-16T10:34:07.275Z,26.598206
2022-10-16T10:35:16.955Z,26.517639
2022-10-16T10:36:25.653Z,26.598206
2022-10-16T10:37:33.323Z,26.517639
2022-10-16T10:38:43.003Z,26.255798
2022-10-16T10:39:50.724Z,26.326294
2022-10-16T10:40:59.555Z,26.65863
2022-10-16T10:42:09.289Z,26.890259
2022-10-16T10:43:19.023Z,26.729126
2022-10-16T10:44:28.702Z,26.739197
2022-10-16T10:45:38.504Z,26.739197
2022-10-16T10:46:48.236Z,26.52771
2022-10-16T10:47:57.906Z,26.52771
2022-10-16T10:49:06.597Z,26.588135
2022-10-16T10:50:16.280Z,26.698914
2022-10-16T10:51:25.995Z,26.729126
2022-10-16T10:52:33.710Z,26.849976
2022-10-16T10:53:43.418Z,26.990967
2022-10-16T10:54:53.128Z,27.182312
2022-10-16T10:56:02.820Z,27.393799
2022-10-16T10:57:12.569Z,27.796631
2022-10-16T10:58:20.264Z,28.098755
2022-10-16T10:59:28.899Z,28.390808
2022-10-16T11:00:38.563Z,28.562012
2022-10-16T11:01:47.359Z,28.491516
2022-10-16T11:02:56.003Z,28.199463
2022-10-16T11:04:04.699Z,28.300171
2022-10-16T11:05:12.377Z,28.199463
2022-10-16T11:06:22.053Z,27.645569
2022-10-16T11:07:30.707Z,27.393799
2022-10-16T11:08:39.415Z,27.222595
2022-10-16T11:09:49.180Z,27.172241
2022-10-16T11:10:57.888Z,27.323303
2022-10-16T11:12:07.555Z,27.424011
2022-10-16T11:13:17.236Z,27.645569
2022-10-16T11:14:24.950Z,27.857056
2022-10-16T11:15:34.653Z,27.897339
2022-10-16T11:16:44.422Z,28.219604
2022-10-16T11:17:54.169Z,28.54187
2022-10-16T11:19:03.880Z,28.894348
2022-10-16T11:20:11.614Z,29.256897
2022-10-16T11:21:21.341Z,29.488525
2022-10-16T11:22:31.944Z,29.569092
2022-10-16T11:23:40.610Z,29.649658
2022-10-16T11:24:50.449Z,29.730225
2022-10-16T11:25:59.077Z,29.569092
2022-10-16T11:27:08.803Z,29.649658
2022-10-16T11:28:19.563Z,29.307251
2022-10-16T11:29:29.166Z,29.256897
2022-10-16T11:30:38.815Z,29.448242
2022-10-16T11:31:48.574Z,29.730225
2022-10-16T11:32:57.269Z,29.861145
2022-10-16T11:34:06.947Z,29.629517
2022-10-16T11:35:15.664Z,29.156189
2022-10-16T11:36:25.334Z,29.16626
2022-10-16T11:37:35.248Z,29.438171
2022-10-16T11:38:43.913Z,29.841003
2022-10-16T11:39:53.586Z,30.243835
2022-10-16T11:41:02.278Z,30.324402
2022-10-16T11:42:09.922Z,30.002136
2022-10-16T11:43:19.676Z,29.649658
2022-10-16T11:44:28.361Z,29.689941
2022-10-16T11:45:37.019Z,29.750366
2022-10-16T11:46:52.509Z,29.760437
2022-10-16T11:47:59.862Z,29.810791
2022-10-16T11:49:07.062Z,29.679871
2022-10-16T11:50:15.730Z,29.810791
2022-10-16T11:51:23.383Z,29.871216
2022-10-16T11:52:33.065Z,29.820862
2022-10-16T11:53:41.698Z,30.153198
2022-10-16T11:54:51.408Z,30.626526
2022-10-16T11:56:01.205Z,30.938721
2022-10-16T11:57:09.876Z,31.18042
2022-10-16T11:58:19.559Z,31.462402
2022-10-16T11:59:29.244Z,31.663818
2022-10-16T12:00:37.989Z,31.925659
2022-10-16T12:01:47.695Z,31.704102
2022-10-16T12:02:55.371Z,31.0495
2022-10-16T12:04:05.075Z,30.918579
2022-10-16T12:05:14.835Z,31.150208
2022-10-16T12:06:23.574Z,31.341553
2022-10-16T12:07:33.253Z,31.512756
2022-10-16T12:08:41.962Z,31.885376
2022-10-16T12:09:50.639Z,31.93573
2022-10-16T12:11:00.330Z,32.429199
2022-10-16T12:12:09.093Z,32.701111
2022-10-16T12:13:17.803Z,31.925659
2022-10-16T12:14:27.522Z,32.076721
2022-10-16T12:15:58.014Z,32.288208
2022-10-16T12:16:48.881Z,32.257996
2022-10-16T12:17:58.676Z,32.338562
2022-10-16T12:19:06.346Z,32.207642
2022-10-16T12:20:15.041Z,32.257996
2022-10-16T12:21:24.825Z,31.986084
2022-10-16T12:22:35.864Z,31.512756
2022-10-16T12:23:43.291Z,31.210632
2022-10-16T12:24:52.011Z,31.371765
2022-10-16T12:26:01.690Z,31.250916
2022-10-16T12:27:11.381Z,31.31134
2022-10-16T12:28:19.242Z,31.522827
2022-10-16T12:29:28.830Z,31.391907
2022-10-16T12:30:38.515Z,31.069641
2022-10-16T12:31:54.700Z,30.586243
2022-10-16T12:32:56.871Z,30.354614
2022-10-16T12:34:05.567Z,30.274048
2022-10-16T12:35:14.249Z,30.42511
2022-10-16T12:36:24.998Z,30.67688
2022-10-16T12:37:32.619Z,31.019287
2022-10-16T12:38:40.308Z,31.220703
2022-10-16T12:39:50.969Z,31.31134
2022-10-16T12:41:00.808Z,31.623535
2022-10-16T12:42:10.475Z,31.865234
2022-10-16T12:43:20.208Z,31.835022
2022-10-16T12:44:30.884Z,31.865234
2022-10-16T12:45:40.636Z,31.93573
2022-10-16T12:46:50.945Z,32.076721
2022-10-16T12:47:59.707Z,32.409058
2022-10-16T12:49:09.378Z,32.56012
2022-10-16T12:50:18.182Z,32.701111
2022-10-16T12:51:27.913Z,33.174438
2022-10-16T12:52:37.642Z,33.335571
2022-10-16T12:53:46.325Z,33.365784
2022-10-16T12:54:56.058Z,33.305359
2022-10-16T12:56:04.847Z,33.275146
2022-10-16T12:57:13.500Z,33.124084
2022-10-16T12:58:23.322Z,33.053589
2022-10-16T12:59:31.007Z,32.801819
2022-10-16T13:00:40.742Z,32.358704
2022-10-16T13:01:50.347Z,32.06665
2022-10-16T13:03:00.035Z,31.965942
2022-10-16T13:04:10.712Z,32.157288
2022-10-16T13:05:18.453Z,32.137146
2022-10-16T13:06:28.211Z,31.965942
2022-10-16T13:07:37.888Z,31.885376
2022-10-16T13:08:46.620Z,32.006226
2022-10-16T13:09:56.337Z,32.368774
2022-10-16T13:11:05.086Z,32.630615
2022-10-16T13:12:14.814Z,33.114014